sensor_id;sensor_type;location;lat;lon;timestamp;pressure;altitude;pressure_sealevel;temperature;humidity
51687;BME280;37774;52.192;4.584;2022-08-03T00:02:03;101607.28;;;19.26;100.00
51687;BME280;37774;52.192;4.584;2022-08-03T00:04:30;101605.34;;;19.31;100.00
51687;BME280;37774;52.192;4.584;2022-08-03T00:06:57;101608.22;;;19.23;100.00
51687;BME280;37774;52.192;4.584;2022-08-03T00:09:23;101609.34;;;19.16;100.00
51687;BME280;37774;52.192;4.584;2022-08-03T00:11:50;101579.84;;;19.05;100.00
51687;BME280;37774;52.192;4.584;2022-08-03T00:14:17;101573.66;;;19.06;100.00
51687;BME280;37774;52.192;4.584;2022-08-03T00:16:43;101544.53;;;18.82;100.00
51687;BME280;37774;52.192;4.584;2022-08-03T00:19:11;101597.97;;;19.14;100.00
51687;BME280;37774;52.192;4.584;2022-08-03T00:21:38;101596.25;;;19.13;100.00
51687;BME280;37774;52.192;4.584;2022-08-03T00:24:05;101563.13;;;18.76;100.00
51687;BME280;37774;52.192;4.584;2022-08-03T00:26:32;101571.16;;;19.01;100.00
51687;BME280;37774;52.192;4.584;2022-08-03T00:28:59;101581.47;;;19.09;100.00
51687;BME280;37774;52.192;4.584;2022-08-03T00:31:25;101597.59;;;18.98;100.00
51687;BME280;37774;52.192;4.584;2022-08-03T00:33:52;101578.38;;;18.94;100.00
51687;BME280;37774;52.192;4.584;2022-08-03T00:36:20;101558.97;;;18.98;100.00
51687;BME280;37774;52.192;4.584;2022-08-03T00:38:47;101558.13;;;18.96;100.00
51687;BME280;37774;52.192;4.584;2022-08-03T00:41:13;101554.53;;;18.99;100.00
51687;BME280;37774;52.192;4.584;2022-08-03T00:43:40;101538.81;;;18.97;100.00
51687;BME280;37774;52.192;4.584;2022-08-03T00:46:07;101522.13;;;18.97;100.00
51687;BME280;37774;52.192;4.584;2022-08-03T00:48:34;101424.75;;;18.38;100.00
51687;BME280;37774;52.192;4.584;2022-08-03T00:51:01;101507.38;;;18.91;100.00
51687;BME280;37774;52.192;4.584;2022-08-03T00:53:29;101439.31;;;18.50;100.00
51687;BME280;37774;52.192;4.584;2022-08-03T00:55:56;101496.94;;;18.88;100.00
51687;BME280;37774;52.192;4.584;2022-08-03T00:58:23;101448.53;;;18.64;100.00
51687;BME280;37774;52.192;4.584;2022-08-03T01:00:50;101484.47;;;18.93;100.00
51687;BME280;37774;52.192;4.584;2022-08-03T01:03:17;101472.91;;;18.71;100.00
51687;BME280;37774;52.192;4.584;2022-08-03T01:06:15;101474.75;;;18.68;100.00
51687;BME280;37774;52.192;4.584;2022-08-03T01:08:49;101356.50;;;18.05;100.00
51687;BME280;37774;52.192;4.584;2022-08-03T01:11:23;101420.38;;;18.67;100.00
51687;BME280;37774;52.192;4.584;2022-08-03T01:13:58;101369.53;;;18.65;100.00
51687;BME280;37774;52.192;4.584;2022-08-03T01:16:30;101335.72;;;18.53;100.00
51687;BME280;37774;52.192;4.584;2022-08-03T01:19:03;101276.72;;;18.60;100.00
51687;BME280;37774;52.192;4.584;2022-08-03T01:21:42;101227.53;;;18.62;100.00
51687;BME280;37774;52.192;4.584;2022-08-03T01:24:26;101183.16;;;18.51;100.00
51687;BME280;37774;52.192;4.584;2022-08-03T01:27:04;101121.34;;;18.38;100.00
51687;BME280;37774;52.192;4.584;2022-08-03T01:30:06;101120.78;;;18.53;100.00
51687;BME280;37774;52.192;4.584;2022-08-03T01:32:38;101096.25;;;18.53;100.00
51687;BME280;37774;52.192;4.584;2022-08-03T01:35:09;101068.31;;;18.49;100.00
51687;BME280;37774;52.192;4.584;2022-08-03T01:37:40;100960.22;;;17.84;100.00
51687;BME280;37774;52.192;4.584;2022-08-03T01:40:11;101045.63;;;18.22;100.00
51687;BME280;37774;52.192;4.584;2022-08-03T01:42:40;101047.03;;;18.07;100.00
51687;BME280;37774;52.192;4.584;2022-08-03T01:45:12;101083.66;;;18.37;100.00
51687;BME280;37774;52.192;4.584;2022-08-03T01:47:39;101042.81;;;18.27;100.00
51687;BME280;37774;52.192;4.584;2022-08-03T01:50:08;101002.22;;;18.34;100.00
51687;BME280;37774;52.192;4.584;2022-08-03T01:52:38;100960.88;;;18.38;100.00
51687;BME280;37774;52.192;4.584;2022-08-03T01:55:07;100933.81;;;18.34;100.00
51687;BME280;37774;52.192;4.584;2022-08-03T01:57:37;100908.50;;;18.32;100.00
51687;BME280;37774;52.192;4.584;2022-08-03T02:00:05;100794.41;;;17.66;100.00
51687;BME280;37774;52.192;4.584;2022-08-03T02:02:35;100869.34;;;18.24;100.00
51687;BME280;37774;52.192;4.584;2022-08-03T02:05:05;100756.31;;;18.00;100.00
51687;BME280;37774;52.192;4.584;2022-08-03T02:07:33;100731.91;;;18.19;100.00
51687;BME280;37774;52.192;4.584;2022-08-03T02:10:02;100667.16;;;18.16;100.00
51687;BME280;37774;52.192;4.584;2022-08-03T02:12:31;100553.31;;;18.14;100.00
51687;BME280;37774;52.192;4.584;2022-08-03T02:14:59;100457.72;;;17.94;100.00
51687;BME280;37774;52.192;4.584;2022-08-03T02:17:28;100383.03;;;18.00;100.00
51687;BME280;37774;52.192;4.584;2022-08-03T02:19:57;100359.00;;;18.08;100.00
51687;BME280;37774;52.192;4.584;2022-08-03T02:22:26;100296.91;;;18.05;100.00
51687;BME280;37774;52.192;4.584;2022-08-03T02:24:53;100204.97;;;18.04;100.00
51687;BME280;37774;52.192;4.584;2022-08-03T02:27:23;100124.81;;;17.93;100.00
51687;BME280;37774;52.192;4.584;2022-08-03T02:29:52;100019.78;;;17.74;100.00
51687;BME280;37774;52.192;4.584;2022-08-03T02:32:24;99928.16;;;18.02;100.00
51687;BME280;37774;52.192;4.584;2022-08-03T02:34:58;99876.06;;;17.76;100.00
51687;BME280;37774;52.192;4.584;2022-08-03T02:37:30;99879.22;;;17.99;100.00
51687;BME280;37774;52.192;4.584;2022-08-03T02:39:59;99874.75;;;18.01;100.00
51687;BME280;37774;52.192;4.584;2022-08-03T02:42:28;99859.34;;;17.93;100.00
51687;BME280;37774;52.192;4.584;2022-08-03T02:44:58;99862.16;;;17.90;100.00
51687;BME280;37774;52.192;4.584;2022-08-03T02:47:28;99859.69;;;17.87;100.00
51687;BME280;37774;52.192;4.584;2022-08-03T02:49:57;99849.00;;;17.90;100.00
51687;BME280;37774;52.192;4.584;2022-08-03T02:52:28;99820.03;;;17.92;100.00
51687;BME280;37774;52.192;4.584;2022-08-03T02:54:57;99811.56;;;17.87;100.00
51687;BME280;37774;52.192;4.584;2022-08-03T02:57:26;99720.72;;;17.33;100.00
51687;BME280;37774;52.192;4.584;2022-08-03T02:59:54;99797.38;;;17.89;100.00
51687;BME280;37774;52.192;4.584;2022-08-03T03:02:23;99785.94;;;17.90;100.00
51687;BME280;37774;52.192;4.584;2022-08-03T03:04:51;99775.44;;;17.90;100.00
51687;BME280;37774;52.192;4.584;2022-08-03T03:07:20;99753.47;;;17.91;100.00
51687;BME280;37774;52.192;4.584;2022-08-03T03:09:47;99741.19;;;17.92;100.00
51687;BME280;37774;52.192;4.584;2022-08-03T03:12:16;99698.69;;;18.00;100.00
51687;BME280;37774;52.192;4.584;2022-08-03T03:14:43;99683.38;;;17.76;100.00
51687;BME280;37774;52.192;4.584;2022-08-03T03:17:11;99669.81;;;17.84;100.00
51687;BME280;37774;52.192;4.584;2022-08-03T03:19:38;99642.47;;;17.40;100.00
51687;BME280;37774;52.192;4.584;2022-08-03T03:22:07;99646.94;;;17.86;100.00
51687;BME280;37774;52.192;4.584;2022-08-03T03:24:36;99644.47;;;17.83;100.00
51687;BME280;37774;52.192;4.584;2022-08-03T03:27:03;99660.06;;;18.02;100.00
51687;BME280;37774;52.192;4.584;2022-08-03T03:29:31;99645.84;;;18.06;100.00
51687;BME280;37774;52.192;4.584;2022-08-03T03:32:00;99641.41;;;18.06;100.00
51687;BME280;37774;52.192;4.584;2022-08-03T03:34:28;99642.25;;;17.91;100.00
51687;BME280;37774;52.192;4.584;2022-08-03T03:36:55;99630.63;;;17.95;100.00
51687;BME280;37774;52.192;4.584;2022-08-03T03:39:22;99629.19;;;18.05;100.00
51687;BME280;37774;52.192;4.584;2022-08-03T03:41:50;99640.22;;;18.12;100.00
51687;BME280;37774;52.192;4.584;2022-08-03T03:44:17;99642.75;;;18.14;100.00
51687;BME280;37774;52.192;4.584;2022-08-03T03:46:44;99615.88;;;17.92;100.00
51687;BME280;37774;52.192;4.584;2022-08-03T03:49:11;99615.31;;;18.03;100.00
51687;BME280;37774;52.192;4.584;2022-08-03T03:51:38;99616.59;;;18.27;100.00
51687;BME280;37774;52.192;4.584;2022-08-03T03:54:05;99613.03;;;18.28;100.00
51687;BME280;37774;52.192;4.584;2022-08-03T03:56:32;99609.44;;;18.29;100.00
51687;BME280;37774;52.192;4.584;2022-08-03T03:59:00;99612.16;;;18.27;100.00
51687;BME280;37774;52.192;4.584;2022-08-03T04:01:27;99615.34;;;18.32;100.00
51687;BME280;37774;52.192;4.584;2022-08-03T04:03:54;99616.13;;;18.34;100.00
51687;BME280;37774;52.192;4.584;2022-08-03T04:06:21;99537.31;;;17.88;100.00
51687;BME280;37774;52.192;4.584;2022-08-03T04:09:05;99614.53;;;18.32;100.00
51687;BME280;37774;52.192;4.584;2022-08-03T04:11:53;99587.06;;;18.07;100.00
51687;BME280;37774;52.192;4.584;2022-08-03T04:14:24;99619.78;;;18.32;100.00
51687;BME280;37774;52.192;4.584;2022-08-03T04:16:55;99624.28;;;18.30;100.00
51687;BME280;37774;52.192;4.584;2022-08-03T04:19:27;99502.72;;;17.50;100.00
51687;BME280;37774;52.192;4.584;2022-08-03T04:22:00;99614.13;;;18.23;100.00
51687;BME280;37774;52.192;4.584;2022-08-03T04:24:32;99600.03;;;18.10;100.00
51687;BME280;37774;52.192;4.584;2022-08-03T04:27:01;99580.38;;;18.01;100.00
51687;BME280;37774;52.192;4.584;2022-08-03T04:29:34;99627.09;;;18.27;100.00
51687;BME280;37774;52.192;4.584;2022-08-03T04:32:04;99621.34;;;18.20;100.00
51687;BME280;37774;52.192;4.584;2022-08-03T04:34:32;99630.75;;;18.24;100.00
51687;BME280;37774;52.192;4.584;2022-08-03T04:37:01;99642.00;;;18.26;100.00
51687;BME280;37774;52.192;4.584;2022-08-03T04:39:30;99640.31;;;18.25;100.00
51687;BME280;37774;52.192;4.584;2022-08-03T04:42:01;99615.31;;;17.87;100.00
51687;BME280;37774;52.192;4.584;2022-08-03T04:44:33;99647.63;;;18.20;100.00
51687;BME280;37774;52.192;4.584;2022-08-03T04:47:01;99666.16;;;18.18;100.00
51687;BME280;37774;52.192;4.584;2022-08-03T04:49:29;99622.56;;;18.14;100.00
51687;BME280;37774;52.192;4.584;2022-08-03T04:51:56;99641.75;;;18.31;100.00
51687;BME280;37774;52.192;4.584;2022-08-03T04:54:22;99264.88;;;15.94;100.00
51687;BME280;37774;52.192;4.584;2022-08-03T04:56:49;99656.41;;;18.35;100.00
51687;BME280;37774;52.192;4.584;2022-08-03T04:59:16;99472.06;;;17.35;100.00
51687;BME280;37774;52.192;4.584;2022-08-03T05:01:44;99615.63;;;18.13;100.00
51687;BME280;37774;52.192;4.584;2022-08-03T05:04:11;99657.19;;;18.37;100.00
51687;BME280;37774;52.192;4.584;2022-08-03T05:06:38;99649.84;;;18.42;100.00
51687;BME280;37774;52.192;4.584;2022-08-03T05:09:04;99639.22;;;18.44;100.00
51687;BME280;37774;52.192;4.584;2022-08-03T05:11:31;99594.97;;;18.21;100.00
51687;BME280;37774;52.192;4.584;2022-08-03T05:13:58;99640.09;;;18.59;100.00
51687;BME280;37774;52.192;4.584;2022-08-03T05:16:25;99646.31;;;18.58;100.00
51687;BME280;37774;52.192;4.584;2022-08-03T05:18:53;99650.25;;;18.65;100.00
51687;BME280;37774;52.192;4.584;2022-08-03T05:21:19;99485.94;;;17.37;100.00
51687;BME280;37774;52.192;4.584;2022-08-03T05:23:46;99558.22;;;18.05;100.00
51687;BME280;37774;52.192;4.584;2022-08-03T05:26:13;99670.31;;;18.82;100.00
51687;BME280;37774;52.192;4.584;2022-08-03T05:28:40;99671.81;;;18.86;100.00
51687;BME280;37774;52.192;4.584;2022-08-03T05:31:06;99662.78;;;18.90;100.00
51687;BME280;37774;52.192;4.584;2022-08-03T05:33:33;99663.19;;;18.98;100.00
51687;BME280;37774;52.192;4.584;2022-08-03T05:36:02;99629.31;;;18.92;100.00
51687;BME280;37774;52.192;4.584;2022-08-03T05:38:28;99580.09;;;18.65;100.00
51687;BME280;37774;52.192;4.584;2022-08-03T05:40:56;99660.28;;;19.18;100.00
51687;BME280;37774;52.192;4.584;2022-08-03T05:43:23;99636.75;;;19.15;100.00
51687;BME280;37774;52.192;4.584;2022-08-03T05:45:50;99613.53;;;19.07;100.00
51687;BME280;37774;52.192;4.584;2022-08-03T05:48:17;99643.41;;;19.20;100.00
51687;BME280;37774;52.192;4.584;2022-08-03T05:50:43;99653.69;;;19.52;100.00
51687;BME280;37774;52.192;4.584;2022-08-03T05:53:11;99679.13;;;19.39;100.00
51687;BME280;37774;52.192;4.584;2022-08-03T05:55:38;99663.13;;;19.42;100.00
51687;BME280;37774;52.192;4.584;2022-08-03T05:58:05;99671.38;;;19.50;100.00
51687;BME280;37774;52.192;4.584;2022-08-03T06:00:32;99680.59;;;19.58;100.00
51687;BME280;37774;52.192;4.584;2022-08-03T06:02:58;99559.94;;;18.93;100.00
51687;BME280;37774;52.192;4.584;2022-08-03T06:05:25;99686.00;;;19.41;100.00
51687;BME280;37774;52.192;4.584;2022-08-03T06:07:52;99729.63;;;19.60;100.00
51687;BME280;37774;52.192;4.584;2022-08-03T06:10:20;99668.78;;;19.36;100.00
51687;BME280;37774;52.192;4.584;2022-08-03T06:12:47;99497.59;;;18.37;100.00
51687;BME280;37774;52.192;4.584;2022-08-03T06:15:16;99549.81;;;18.73;100.00
51687;BME280;37774;52.192;4.584;2022-08-03T06:17:45;99625.38;;;18.85;100.00
51687;BME280;37774;52.192;4.584;2022-08-03T06:20:12;99746.41;;;20.01;100.00
51687;BME280;37774;52.192;4.584;2022-08-03T06:22:41;99710.19;;;19.76;100.00
51687;BME280;37774;52.192;4.584;2022-08-03T06:25:08;99780.22;;;19.80;100.00
51687;BME280;37774;52.192;4.584;2022-08-03T06:27:36;99788.69;;;19.85;100.00
51687;BME280;37774;52.192;4.584;2022-08-03T06:30:05;99767.00;;;19.67;100.00
51687;BME280;37774;52.192;4.584;2022-08-03T06:32:33;99786.34;;;19.95;100.00
51687;BME280;37774;52.192;4.584;2022-08-03T06:34:59;99579.91;;;18.68;100.00
51687;BME280;37774;52.192;4.584;2022-08-03T06:37:26;99828.31;;;20.12;100.00
51687;BME280;37774;52.192;4.584;2022-08-03T06:39:53;99658.47;;;18.89;100.00
51687;BME280;37774;52.192;4.584;2022-08-03T06:42:20;99859.34;;;20.36;100.00
51687;BME280;37774;52.192;4.584;2022-08-03T06:44:48;99866.38;;;20.50;100.00
51687;BME280;37774;52.192;4.584;2022-08-03T06:47:15;99859.22;;;20.10;100.00
51687;BME280;37774;52.192;4.584;2022-08-03T06:49:42;99911.47;;;20.60;100.00
51687;BME280;37774;52.192;4.584;2022-08-03T06:52:09;99939.47;;;20.63;100.00
51687;BME280;37774;52.192;4.584;2022-08-03T06:54:35;99880.59;;;20.48;100.00
51687;BME280;37774;52.192;4.584;2022-08-03T06:57:03;99930.44;;;20.52;100.00
51687;BME280;37774;52.192;4.584;2022-08-03T06:59:30;99971.06;;;20.79;100.00
51687;BME280;37774;52.192;4.584;2022-08-03T07:01:58;99987.81;;;20.78;100.00
51687;BME280;37774;52.192;4.584;2022-08-03T07:04:25;99954.75;;;20.57;100.00
51687;BME280;37774;52.192;4.584;2022-08-03T07:06:52;99822.97;;;19.56;100.00
51687;BME280;37774;52.192;4.584;2022-08-03T07:09:19;100047.78;;;20.90;100.00
51687;BME280;37774;52.192;4.584;2022-08-03T07:11:46;100053.06;;;20.76;100.00
51687;BME280;37774;52.192;4.584;2022-08-03T07:14:13;100094.34;;;21.06;100.00
51687;BME280;37774;52.192;4.584;2022-08-03T07:16:39;100123.56;;;21.17;100.00
51687;BME280;37774;52.192;4.584;2022-08-03T07:19:08;100148.81;;;21.21;100.00
51687;BME280;37774;52.192;4.584;2022-08-03T07:21:34;100184.19;;;21.19;100.00
51687;BME280;37774;52.192;4.584;2022-08-03T07:24:01;100215.81;;;21.35;100.00
51687;BME280;37774;52.192;4.584;2022-08-03T07:26:28;100141.88;;;21.06;100.00
51687;BME280;37774;52.192;4.584;2022-08-03T07:28:55;100120.41;;;20.83;100.00
51687;BME280;37774;52.192;4.584;2022-08-03T07:31:21;100277.00;;;21.85;100.00
51687;BME280;37774;52.192;4.584;2022-08-03T07:33:48;100349.66;;;21.94;100.00
51687;BME280;37774;52.192;4.584;2022-08-03T07:36:16;100372.31;;;21.69;100.00
51687;BME280;37774;52.192;4.584;2022-08-03T07:38:43;100384.78;;;21.67;100.00
51687;BME280;37774;52.192;4.584;2022-08-03T07:41:10;100457.13;;;21.66;100.00
51687;BME280;37774;52.192;4.584;2022-08-03T07:43:36;100285.41;;;20.13;100.00
51687;BME280;37774;52.192;4.584;2022-08-03T07:46:03;100542.34;;;21.85;100.00
51687;BME280;37774;52.192;4.584;2022-08-03T07:48:30;100565.31;;;21.99;100.00
51687;BME280;37774;52.192;4.584;2022-08-03T07:50:57;100611.16;;;22.14;100.00
51687;BME280;37774;52.192;4.584;2022-08-03T07:53:25;100612.00;;;21.70;100.00
51687;BME280;37774;52.192;4.584;2022-08-03T07:55:52;100610.38;;;21.67;100.00
51687;BME280;37774;52.192;4.584;2022-08-03T07:58:18;100576.97;;;21.50;100.00
51687;BME280;37774;52.192;4.584;2022-08-03T08:00:47;100651.78;;;21.99;100.00
51687;BME280;37774;52.192;4.584;2022-08-03T08:03:15;100680.56;;;22.50;100.00
51687;BME280;37774;52.192;4.584;2022-08-03T08:05:42;100677.59;;;22.55;100.00
51687;BME280;37774;52.192;4.584;2022-08-03T08:08:09;100716.22;;;23.02;100.00
51687;BME280;37774;52.192;4.584;2022-08-03T08:10:37;100732.31;;;22.85;100.00
51687;BME280;37774;52.192;4.584;2022-08-03T08:13:04;100750.75;;;23.01;100.00
51687;BME280;37774;52.192;4.584;2022-08-03T08:15:31;100781.34;;;23.07;100.00
51687;BME280;37774;52.192;4.584;2022-08-03T08:17:59;100663.00;;;21.72;100.00
51687;BME280;37774;52.192;4.584;2022-08-03T08:20:28;100821.28;;;23.03;100.00
51687;BME280;37774;52.192;4.584;2022-08-03T08:22:55;100807.66;;;22.95;100.00
51687;BME280;37774;52.192;4.584;2022-08-03T08:25:23;100852.38;;;23.45;100.00
51687;BME280;37774;52.192;4.584;2022-08-03T08:27:51;100725.97;;;22.42;100.00
51687;BME280;37774;52.192;4.584;2022-08-03T08:30:20;100892.13;;;23.30;100.00
51687;BME280;37774;52.192;4.584;2022-08-03T08:32:48;100885.13;;;23.44;100.00
51687;BME280;37774;52.192;4.584;2022-08-03T08:35:15;100959.44;;;24.16;100.00
51687;BME280;37774;52.192;4.584;2022-08-03T08:37:42;100904.72;;;23.99;100.00
51687;BME280;37774;52.192;4.584;2022-08-03T08:40:10;101028.91;;;24.23;100.00
51687;BME280;37774;52.192;4.584;2022-08-03T08:42:38;101049.84;;;24.57;100.00
51687;BME280;37774;52.192;4.584;2022-08-03T08:45:07;101055.88;;;24.88;100.00
51687;BME280;37774;52.192;4.584;2022-08-03T08:47:37;101020.66;;;23.99;100.00
51687;BME280;37774;52.192;4.584;2022-08-03T08:50:05;101101.75;;;24.48;100.00
51687;BME280;37774;52.192;4.584;2022-08-03T08:52:34;101112.06;;;24.67;100.00
51687;BME280;37774;52.192;4.584;2022-08-03T08:55:04;101083.53;;;24.56;100.00
51687;BME280;37774;52.192;4.584;2022-08-03T08:57:33;101086.69;;;25.05;100.00
51687;BME280;37774;52.192;4.584;2022-08-03T09:00:03;101075.56;;;25.26;100.00
51687;BME280;37774;52.192;4.584;2022-08-03T09:02:32;101074.97;;;25.35;100.00
51687;BME280;37774;52.192;4.584;2022-08-03T09:05:00;101029.22;;;25.30;100.00
51687;BME280;37774;52.192;4.584;2022-08-03T09:07:27;101067.63;;;25.79;100.00
51687;BME280;37774;52.192;4.584;2022-08-03T09:09:54;101065.75;;;26.07;100.00
51687;BME280;37774;52.192;4.584;2022-08-03T09:12:21;101092.66;;;25.76;100.00
51687;BME280;37774;52.192;4.584;2022-08-03T09:14:48;101093.19;;;26.07;100.00
51687;BME280;37774;52.192;4.584;2022-08-03T09:17:15;101083.06;;;26.51;100.00
51687;BME280;37774;52.192;4.584;2022-08-03T09:20:03;101113.16;;;26.15;100.00
51687;BME280;37774;52.192;4.584;2022-08-03T09:22:30;101095.91;;;26.83;100.00
51687;BME280;37774;52.192;4.584;2022-08-03T09:24:59;101098.22;;;26.12;100.00
51687;BME280;37774;52.192;4.584;2022-08-03T09:27:28;101099.41;;;27.21;100.00
51687;BME280;37774;52.192;4.584;2022-08-03T09:29:56;101120.97;;;26.81;100.00
51687;BME280;37774;52.192;4.584;2022-08-03T09:32:23;100967.47;;;25.52;100.00
51687;BME280;37774;52.192;4.584;2022-08-03T09:34:52;101126.44;;;27.17;100.00
51687;BME280;37774;52.192;4.584;2022-08-03T09:37:19;101185.28;;;26.89;100.00
51687;BME280;37774;52.192;4.584;2022-08-03T09:39:50;101031.72;;;25.46;100.00
51687;BME280;37774;52.192;4.584;2022-08-03T09:42:18;101219.72;;;26.92;100.00
51687;BME280;37774;52.192;4.584;2022-08-03T09:44:48;101315.97;;;27.39;100.00
51687;BME280;37774;52.192;4.584;2022-08-03T09:47:16;101296.03;;;26.67;100.00
51687;BME280;37774;52.192;4.584;2022-08-03T09:49:58;101374.00;;;27.49;100.00
51687;BME280;37774;52.192;4.584;2022-08-03T09:52:30;101337.53;;;27.36;100.00
51687;BME280;37774;52.192;4.584;2022-08-03T09:54:58;101375.53;;;27.53;100.00
51687;BME280;37774;52.192;4.584;2022-08-03T09:57:26;101436.03;;;27.78;100.00
51687;BME280;37774;52.192;4.584;2022-08-03T10:00:06;101440.00;;;28.23;100.00
51687;BME280;37774;52.192;4.584;2022-08-03T10:02:35;101449.66;;;28.61;100.00
51687;BME280;37774;52.192;4.584;2022-08-03T10:05:04;101407.41;;;27.67;100.00
51687;BME280;37774;52.192;4.584;2022-08-03T10:07:41;101435.94;;;27.54;100.00
51687;BME280;37774;52.192;4.584;2022-08-03T10:10:08;101519.63;;;28.18;100.00
51687;BME280;37774;52.192;4.584;2022-08-03T10:12:36;101486.88;;;27.64;100.00
51687;BME280;37774;52.192;4.584;2022-08-03T10:15:04;101539.06;;;28.57;100.00
51687;BME280;37774;52.192;4.584;2022-08-03T10:17:31;101494.16;;;28.25;100.00
51687;BME280;37774;52.192;4.584;2022-08-03T10:19:57;101553.59;;;28.03;100.00
51687;BME280;37774;52.192;4.584;2022-08-03T10:22:27;101536.94;;;27.86;100.00
51687;BME280;37774;52.192;4.584;2022-08-03T10:24:58;101566.50;;;28.72;100.00
51687;BME280;37774;52.192;4.584;2022-08-03T10:27:26;101551.81;;;28.53;100.00
51687;BME280;37774;52.192;4.584;2022-08-03T10:29:59;101576.38;;;28.58;100.00
51687;BME280;37774;52.192;4.584;2022-08-03T10:32:29;101519.81;;;28.02;100.00
51687;BME280;37774;52.192;4.584;2022-08-03T10:35:02;101582.13;;;28.78;100.00
51687;BME280;37774;52.192;4.584;2022-08-03T10:37:35;101554.63;;;29.25;100.00
51687;BME280;37774;52.192;4.584;2022-08-03T10:40:07;101595.81;;;29.22;100.00
51687;BME280;37774;52.192;4.584;2022-08-03T10:42:35;101606.03;;;28.55;100.00
51687;BME280;37774;52.192;4.584;2022-08-03T10:45:05;101598.81;;;28.82;100.00
51687;BME280;37774;52.192;4.584;2022-08-03T10:47:33;101604.00;;;28.46;100.00
51687;BME280;37774;52.192;4.584;2022-08-03T10:50:00;101611.94;;;29.09;100.00
51687;BME280;37774;52.192;4.584;2022-08-03T10:52:27;101603.63;;;28.77;100.00
51687;BME280;37774;52.192;4.584;2022-08-03T10:54:55;101592.06;;;28.39;100.00
51687;BME280;37774;52.192;4.584;2022-08-03T10:57:49;101611.13;;;28.71;100.00
51687;BME280;37774;52.192;4.584;2022-08-03T11:00:19;101544.53;;;28.18;100.00
51687;BME280;37774;52.192;4.584;2022-08-03T11:03:04;101599.47;;;28.60;100.00
51687;BME280;37774;52.192;4.584;2022-08-03T11:05:32;101551.22;;;28.37;100.00
51687;BME280;37774;52.192;4.584;2022-08-03T11:08:19;101598.56;;;29.09;100.00
51687;BME280;37774;52.192;4.584;2022-08-03T11:10:48;101598.69;;;29.32;100.00
51687;BME280;37774;52.192;4.584;2022-08-03T11:13:17;101592.53;;;29.19;100.00
51687;BME280;37774;52.192;4.584;2022-08-03T11:15:46;101547.91;;;28.95;100.00
51687;BME280;37774;52.192;4.584;2022-08-03T11:18:14;101573.66;;;30.03;100.00
51687;BME280;37774;52.192;4.584;2022-08-03T11:20:45;101545.09;;;29.68;100.00
51687;BME280;37774;52.192;4.584;2022-08-03T11:23:12;101576.41;;;29.90;100.00
51687;BME280;37774;52.192;4.584;2022-08-03T11:26:09;101586.06;;;30.38;100.00
51687;BME280;37774;52.192;4.584;2022-08-03T11:28:37;101579.84;;;29.92;100.00
51687;BME280;37774;52.192;4.584;2022-08-03T11:31:45;101561.09;;;30.15;100.00
51687;BME280;37774;52.192;4.584;2022-08-03T11:34:14;101580.25;;;30.10;100.00
51687;BME280;37774;52.192;4.584;2022-08-03T11:39:53;101564.78;;;30.25;100.00
51687;BME280;37774;52.192;4.584;2022-08-03T11:42:42;101581.69;;;30.37;100.00
51687;BME280;37774;52.192;4.584;2022-08-03T11:45:12;101563.03;;;30.47;100.00
51687;BME280;37774;52.192;4.584;2022-08-03T11:47:40;101568.31;;;30.81;100.00
51687;BME280;37774;52.192;4.584;2022-08-03T11:50:07;101573.53;;;31.69;100.00
51687;BME280;37774;52.192;4.584;2022-08-03T11:52:36;101574.59;;;31.36;100.00
51687;BME280;37774;52.192;4.584;2022-08-03T11:55:08;101575.88;;;31.62;100.00
51687;BME280;37774;52.192;4.584;2022-08-03T11:57:36;101577.47;;;31.65;100.00
51687;BME280;37774;52.192;4.584;2022-08-03T12:00:19;101517.94;;;31.17;100.00
51687;BME280;37774;52.192;4.584;2022-08-03T12:02:56;101570.13;;;31.25;100.00
51687;BME280;37774;52.192;4.584;2022-08-03T12:05:40;101532.38;;;31.05;100.00
51687;BME280;37774;52.192;4.584;2022-08-03T12:08:08;101571.25;;;31.22;100.00
51687;BME280;37774;52.192;4.584;2022-08-03T12:10:36;101562.50;;;31.09;100.00
51687;BME280;37774;52.192;4.584;2022-08-03T12:13:05;101562.03;;;30.71;100.00
51687;BME280;37774;52.192;4.584;2022-08-03T12:15:35;101570.00;;;30.94;100.00
51687;BME280;37774;52.192;4.584;2022-08-03T12:18:11;101435.88;;;30.28;100.00
51687;BME280;37774;52.192;4.584;2022-08-03T12:20:38;101525.13;;;31.59;100.00
51687;BME280;37774;52.192;4.584;2022-08-03T12:23:05;101537.22;;;30.90;100.00
51687;BME280;37774;52.192;4.584;2022-08-03T12:25:33;101547.38;;;31.08;100.00
51687;BME280;37774;52.192;4.584;2022-08-03T12:28:12;101528.78;;;31.16;100.00
51687;BME280;37774;52.192;4.584;2022-08-03T12:30:42;101521.41;;;31.51;100.00
51687;BME280;37774;52.192;4.584;2022-08-03T12:33:17;101441.63;;;30.56;100.00
51687;BME280;37774;52.192;4.584;2022-08-03T12:35:46;101529.06;;;31.13;100.00
51687;BME280;37774;52.192;4.584;2022-08-03T12:38:18;101507.47;;;31.67;100.00
51687;BME280;37774;52.192;4.584;2022-08-03T12:40:53;101485.19;;;32.07;100.00
51687;BME280;37774;52.192;4.584;2022-08-03T12:43:20;101498.25;;;31.28;100.00
51687;BME280;37774;52.192;4.584;2022-08-03T12:45:48;101524.81;;;31.53;100.00
51687;BME280;37774;52.192;4.584;2022-08-03T12:48:15;101519.00;;;30.94;100.00
51687;BME280;37774;52.192;4.584;2022-08-03T12:50:42;101476.63;;;30.43;100.00
51687;BME280;37774;52.192;4.584;2022-08-03T12:53:09;101515.25;;;31.17;100.00
51687;BME280;37774;52.192;4.584;2022-08-03T12:55:37;101519.28;;;30.90;100.00
51687;BME280;37774;52.192;4.584;2022-08-03T12:58:06;101533.28;;;30.94;100.00